HEBA 230700Z 04007KT 9999 SCT020 29/17 Q1013 NOSIG
From batch tds/metars/production/2022/9/23/h07_m55_metars.cache.csv.gz
Observed at (13 days ago)
Identifier HEBA
talk